Time;durP1;ratioP1;P1;durP2;ratioP2;P2;SDS_P1;SDS_P2;PMS_P1;PMS_P2;Temp;Humidity;BMP_temperature;BMP_pressure;BME280_temperature;BME280_humidity;BME280_pressure;Samples;Min_cycle;Max_cycle;Signal;HPM_P1;HPM_P2
2022/09/09 00:02:23;;;;;;;4.53;3.25;;;;;;;5.29;80.16;99844.25;4880531;29;20045;-61
2022/09/09 00:05:01;;;;;;;8.18;3.38;;;;;;;5.30;80.02;99848.50;4879896;29;20045;-61
2022/09/09 00:07:36;;;;;;;5.65;3.50;;;;;;;5.32;80.20;99853.56;4878329;29;20053;-61
2022/09/09 00:10:17;;;;;;;5.43;3.17;;;;;;;5.29;80.58;99846.06;4878562;29;20522;-60
2022/09/09 00:12:55;;;;;;;5.38;3.20;;;;;;;5.27;80.58;99848.91;4880006;29;20056;-61
2022/09/09 00:15:25;;;;;;;4.20;3.35;;;;;;;5.23;80.84;99852.91;4879924;29;20056;-61
2022/09/09 00:18:33;;;;;;;4.28;3.13;;;;;;;5.22;80.61;99853.91;4879528;29;20041;-61
2022/09/09 00:21:08;;;;;;;5.15;3.72;;;;;;;5.20;80.89;99864.59;4862226;29;20088;-59
2022/09/09 00:23:39;;;;;;;4.93;3.10;;;;;;;5.20;80.80;99859.34;4878224;29;20132;-59
2022/09/09 00:26:13;;;;;;;5.10;3.33;;;;;;;5.27;80.95;99862.03;4878417;29;20148;-61
2022/09/09 00:28:47;;;;;;;4.93;3.40;;;;;;;5.22;81.16;99867.06;4879258;29;20503;-61
2022/09/09 00:31:18;;;;;;;3.90;2.97;;;;;;;5.17;81.06;99862.34;4893727;29;20132;-60
2022/09/09 00:33:43;;;;;;;;;;;;;;;5.15;81.06;99859.13;4880024;29;20052;-61
2022/09/09 00:36:18;;;;;;;3.75;2.90;;;;;;;5.12;81.18;99867.38;4862765;29;20018;-61
2022/09/09 00:38:56;;;;;;;5.20;3.00;;;;;;;5.07;81.31;99863.69;4878309;29;20053;-61
2022/09/09 00:41:26;;;;;;;4.00;2.85;;;;;;;5.11;81.77;99871.00;4879324;29;20057;-61
2022/09/09 00:44:06;;;;;;;4.57;3.20;;;;;;;5.10;81.12;99873.84;4862477;29;20060;-60
2022/09/09 00:46:44;;;;;;;4.60;3.13;;;;;;;5.07;81.55;99880.28;4877910;29;20077;-61
2022/09/09 00:49:38;;;;;;;4.35;2.90;;;;;;;5.09;82.03;99877.44;4862359;29;20052;-61
2022/09/09 00:52:13;;;;;;;5.47;3.25;;;;;;;5.08;81.97;99886.34;4879262;29;20053;-61
2022/09/09 00:54:50;;;;;;;5.25;3.47;;;;;;;5.08;81.40;99881.09;4879199;29;20057;-61
2022/09/09 00:57:23;;;;;;;4.70;2.80;;;;;;;5.06;80.99;99877.81;4879042;29;20060;-60
2022/09/09 01:00:17;;;;;;;5.15;3.15;;;;;;;5.09;81.24;99882.69;4879154;29;20053;-60
2022/09/09 01:03:12;;;;;;;3.47;2.85;;;;;;;5.13;81.42;99881.34;4877654;29;20132;-60
2022/09/09 01:05:53;;;;;;;5.75;3.35;;;;;;;5.15;81.43;99887.22;4877659;29;20045;-60
2022/09/09 01:08:25;;;;;;;4.43;2.72;;;;;;;5.18;81.29;99887.66;4877698;29;20053;-61
2022/09/09 01:10:55;;;;;;;3.50;2.90;;;;;;;5.19;80.70;99888.47;4862046;29;20060;-61
2022/09/09 01:13:30;;;;;;;7.45;2.80;;;;;;;5.19;80.74;99898.97;4877598;29;20045;-61
2022/09/09 01:16:02;;;;;;;9.63;2.63;;;;;;;5.21;81.67;99891.72;4877327;29;20053;-60
2022/09/09 01:18:35;;;;;;;4.20;3.05;;;;;;;5.22;81.13;99888.88;4862982;29;20041;-59
2022/09/09 01:21:15;;;;;;;3.13;2.78;;;;;;;5.17;81.36;99890.44;4879544;29;20080;-60
2022/09/09 01:24:21;;;;;;;4.15;3.33;;;;;;;5.08;81.53;99883.72;4864053;29;20049;-61
2022/09/09 01:27:02;;;;;;;2.60;2.40;;;;;;;5.02;81.36;99898.41;4863649;29;20086;-61
2022/09/09 01:29:28;;;;;;;3.22;2.88;;;;;;;4.97;81.63;99899.00;4878993;29;20056;-62
2022/09/09 01:31:57;;;;;;;3.33;2.60;;;;;;;4.93;81.94;99902.97;4862816;29;20053;-62
2022/09/09 01:34:25;;;;;;;3.63;2.90;;;;;;;4.86;81.92;99901.31;4861695;29;20048;-61
2022/09/09 01:36:57;;;;;;;6.50;2.85;;;;;;;4.81;82.74;99911.56;4877316;29;20056;-61
2022/09/09 01:39:24;;;;;;;3.35;2.83;;;;;;;4.75;83.12;99910.50;4861471;29;20044;-62
2022/09/09 01:41:58;;;;;;;3.08;2.42;;;;;;;4.74;82.89;99904.41;4863031;29;20071;-61
2022/09/09 01:44:24;;;;;;;3.70;2.40;;;;;;;4.80;82.47;99905.50;4876760;29;20423;-59
2022/09/09 01:46:50;;;;;;;5.10;2.92;;;;;;;4.86;82.21;99914.44;4876912;29;20575;-61
2022/09/09 01:49:18;;;;;;;3.10;2.50;;;;;;;4.90;81.76;99913.06;4861303;29;20048;-61
2022/09/09 01:51:46;;;;;;;3.35;2.63;;;;;;;4.93;81.64;99920.56;4876774;29;20218;-61
2022/09/09 01:54:13;;;;;;;2.53;2.10;;;;;;;4.98;81.67;99926.06;4861354;29;20056;-61
2022/09/09 01:56:54;;;;;;;3.65;2.65;;;;;;;5.01;81.11;99925.69;4876692;29;20057;-61
2022/09/09 01:59:43;;;;;;;3.13;2.20;;;;;;;4.99;81.27;99915.34;4876712;29;20049;-61
2022/09/09 02:02:13;;;;;;;2.95;2.50;;;;;;;5.00;81.06;99921.47;4864833;29;20211;-61
2022/09/09 02:04:51;;;;;;;3.38;2.50;;;;;;;5.00;81.01;99930.16;4876628;29;20057;-60
2022/09/09 02:07:22;;;;;;;4.97;2.53;;;;;;;4.97;81.36;99927.91;4891180;29;20044;-61
2022/09/09 02:09:55;;;;;;;3.08;2.60;;;;;;;4.96;81.80;99928.06;4876511;29;20063;-61
2022/09/09 02:12:23;;;;;;;2.67;2.30;;;;;;;4.82;81.60;99926.31;4876555;29;20048;-61
2022/09/09 02:14:58;;;;;;;3.55;2.55;;;;;;;4.80;82.20;99926.50;4876429;29;20131;-60
2022/09/09 02:17:31;;;;;;;3.65;2.58;;;;;;;4.83;81.99;99933.19;4860935;29;20423;-62
2022/09/09 02:20:14;;;;;;;3.85;2.30;;;;;;;4.76;82.24;99926.06;4876394;29;20056;-61
2022/09/09 02:22:49;;;;;;;4.70;2.63;;;;;;;4.73;82.23;99933.50;4876446;29;20060;-61
2022/09/09 02:25:17;;;;;;;;;;;;;;;4.68;82.74;99938.50;4876761;29;20051;-60
2022/09/09 02:27:46;;;;;;;3.50;2.40;;;;;;;4.61;83.00;99935.78;4876194;29;20376;-62
2022/09/09 02:30:12;;;;;;;3.55;2.30;;;;;;;4.55;82.94;99944.41;4876505;29;20045;-60
2022/09/09 02:32:46;;;;;;;4.88;2.50;;;;;;;4.44;83.36;99942.25;4860947;29;20052;-60
2022/09/09 02:35:17;;;;;;;3.10;2.28;;;;;;;4.40;83.69;99943.63;4876234;29;20408;-61
2022/09/09 02:37:47;;;;;;;3.53;2.35;;;;;;;4.35;84.30;99943.34;4876395;29;20049;-60
2022/09/09 02:40:17;;;;;;;5.13;2.65;;;;;;;4.30;83.89;99951.78;4876257;29;20068;-61
2022/09/09 02:42:49;;;;;;;3.75;2.58;;;;;;;4.22;84.31;99957.13;4876045;29;20064;-62
2022/09/09 02:45:19;;;;;;;3.90;2.50;;;;;;;4.19;84.70;99962.72;4877233;29;20061;-61
2022/09/09 02:47:49;;;;;;;5.60;2.43;;;;;;;4.12;84.44;99960.03;4876206;29;20060;-60
2022/09/09 02:50:23;;;;;;;3.38;2.22;;;;;;;4.04;84.83;99965.34;4876040;29;20135;-60
2022/09/09 02:53:23;;;;;;;3.42;2.55;;;;;;;4.01;85.50;99969.16;4891734;29;20598;-62
2022/09/09 02:55:57;;;;;;;4.82;2.88;;;;;;;4.01;85.18;99968.34;4831608;29;20504;-62
2022/09/09 02:58:24;;;;;;;3.53;2.83;;;;;;;4.06;85.74;99969.44;4876128;29;20048;-62
2022/09/09 03:00:57;;;;;;;3.72;2.78;;;;;;;4.17;85.61;99975.22;4876217;29;20407;-61
2022/09/09 03:03:24;;;;;;;4.80;2.40;;;;;;;4.31;84.15;99979.66;4860987;29;20041;-61
2022/09/09 03:05:51;;;;;;;4.63;2.50;;;;;;;4.45;84.46;99973.56;4861020;29;20418;-60
2022/09/09 03:08:17;;;;;;;2.72;2.20;;;;;;;4.55;83.23;99968.03;4860504;29;20041;-60
2022/09/09 03:10:44;;;;;;;2.72;2.38;;;;;;;4.66;82.93;99977.25;4876344;29;20049;-62
2022/09/09 03:13:15;;;;;;;4.35;2.85;;;;;;;4.75;82.04;99976.97;4875928;29;20047;-61
2022/09/09 03:15:41;;;;;;;3.85;2.78;;;;;;;4.86;81.80;99983.56;4875955;29;20511;-61
2022/09/09 03:18:11;;;;;;;3.58;2.67;;;;;;;4.90;81.27;99982.16;4876208;29;20113;-61
2022/09/09 03:20:36;;;;;;;4.25;2.30;;;;;;;4.92;80.61;99988.06;4879241;29;20507;-61
2022/09/09 03:23:02;;;;;;;3.05;2.45;;;;;;;4.97;80.75;99990.09;4879645;29;20041;-62
2022/09/09 03:25:28;;;;;;;6.18;2.67;;;;;;;4.93;80.49;99983.63;4880885;29;20508;-61
2022/09/09 03:27:55;;;;;;;3.35;2.35;;;;;;;5.08;79.73;99984.38;4863895;29;20593;-61
2022/09/09 03:30:22;;;;;;;3.00;2.70;;;;;;;5.16;79.04;99986.06;4879368;29;20049;-61
2022/09/09 03:32:48;;;;;;;3.45;2.17;;;;;;;5.27;78.57;99997.91;4879527;29;20091;-62
2022/09/09 03:35:15;;;;;;;2.97;2.50;;;;;;;5.30;78.40;100000.16;4880555;29;20076;-62
2022/09/09 03:37:41;;;;;;;3.58;2.60;;;;;;;5.34;78.40;100002.22;4879412;29;20053;-61
2022/09/09 03:40:10;;;;;;;3.00;2.42;;;;;;;5.36;78.34;100002.84;4879143;29;20056;-62
2022/09/09 03:42:36;;;;;;;3.20;2.50;;;;;;;5.57;77.11;100006.47;4879300;29;20121;-60
2022/09/09 03:45:08;;;;;;;2.53;2.30;;;;;;;5.75;76.61;100006.00;4863625;29;20052;-61
2022/09/09 03:47:36;;;;;;;2.88;2.40;;;;;;;5.91;76.30;100003.06;4879152;29;20057;-62
2022/09/09 03:50:08;;;;;;;9.05;2.60;;;;;;;6.04;75.65;100005.84;4880361;29;20041;-62
2022/09/09 03:52:38;;;;;;;4.95;2.45;;;;;;;6.22;74.60;100010.63;4863694;29;20119;-61
2022/09/09 03:55:07;;;;;;;3.88;2.53;;;;;;;6.30;73.47;100002.56;4878955;29;20495;-61
2022/09/09 03:57:34;;;;;;;2.25;1.98;;;;;;;6.33;74.18;99999.53;4879820;29;20121;-61
2022/09/09 04:00:07;;;;;;;4.53;2.55;;;;;;;6.45;73.31;100007.72;4878774;29;20128;-60
2022/09/09 04:02:43;;;;;;;2.50;2.30;;;;;;;6.43;73.10;100003.63;4893230;29;20049;-62
2022/09/09 04:05:11;;;;;;;2.42;2.00;;;;;;;6.66;72.76;100008.63;4878910;29;20041;-62
2022/09/09 04:07:40;;;;;;;3.38;2.35;;;;;;;6.83;71.94;100017.81;4878815;29;20053;-60
2022/09/09 04:10:08;;;;;;;3.65;2.20;;;;;;;6.87;71.78;100007.69;4863064;29;20051;-61
2022/09/09 04:12:36;;;;;;;2.40;2.17;;;;;;;7.03;71.02;100020.50;4863312;29;20575;-61
2022/09/09 04:15:02;;;;;;;2.90;2.20;;;;;;;7.05;70.81;100019.28;4878734;29;20045;-62
2022/09/09 04:17:30;;;;;;;2.53;2.30;;;;;;;7.04;70.66;100014.22;4878625;29;20079;-62
2022/09/09 04:19:56;;;;;;;2.80;2.30;;;;;;;7.05;71.43;100019.28;4878712;29;20044;-60
2022/09/09 04:22:22;;;;;;;4.43;2.40;;;;;;;7.09;70.94;100018.88;4878457;29;20045;-62
2022/09/09 04:24:48;;;;;;;4.18;2.65;;;;;;;6.97;71.34;100016.84;4878315;29;20582;-61
2022/09/09 04:27:16;;;;;;;4.68;2.50;;;;;;;6.99;71.82;100021.91;4878342;29;20154;-62
2022/09/09 04:29:42;;;;;;;3.85;2.67;;;;;;;6.99;71.92;100027.16;4878210;29;20560;-62
2022/09/09 04:32:08;;;;;;;3.08;2.40;;;;;;;7.04;72.03;100022.13;4877677;29;20056;-61
2022/09/09 04:34:34;;;;;;;3.72;2.40;;;;;;;7.13;71.57;100023.56;4878048;29;20041;-62
2022/09/09 04:37:00;;;;;;;2.88;2.60;;;;;;;7.13;71.47;100023.56;4862290;29;20156;-61
2022/09/09 04:39:26;;;;;;;2.88;2.40;;;;;;;7.14;71.85;100024.38;4847070;29;20136;-62
2022/09/09 04:41:52;;;;;;;4.10;2.53;;;;;;;7.08;72.05;100022.53;4877865;29;20136;-61
2022/09/09 04:44:20;;;;;;;3.20;2.33;;;;;;;7.06;72.09;100030.66;4877922;29;20484;-61
2022/09/09 04:46:46;;;;;;;3.75;2.55;;;;;;;6.98;72.67;100028.19;4862435;29;20093;-63
2022/09/09 04:49:13;;;;;;;3.42;2.42;;;;;;;6.95;72.53;100031.22;4878063;29;20128;-62
2022/09/09 04:51:38;;;;;;;4.32;2.75;;;;;;;6.92;72.67;100031.63;4877781;29;20131;-60
2022/09/09 04:54:05;;;;;;;3.40;2.45;;;;;;;6.90;72.95;100026.53;4877961;29;20448;-60
2022/09/09 04:56:32;;;;;;;3.20;2.55;;;;;;;6.87;72.40;100034.03;4877693;29;20419;-61
2022/09/09 04:59:02;;;;;;;4.40;2.33;;;;;;;6.83;72.62;100044.16;4877954;29;20049;-61
2022/09/09 05:01:45;;;;;;;3.05;2.42;;;;;;;6.86;72.51;100038.50;4877516;29;20522;-62
2022/09/09 05:04:11;;;;;;;3.10;2.40;;;;;;;6.77;73.95;100037.84;4862442;29;20085;-62
2022/09/09 05:06:37;;;;;;;3.47;2.40;;;;;;;6.79;73.11;100050.81;4876590;29;20057;-60
2022/09/09 05:09:03;;;;;;;4.72;3.22;;;;;;;6.94;73.00;100043.59;4846157;29;20097;-63
2022/09/09 05:11:32;;;;;;;3.80;2.63;;;;;;;7.01;74.07;100046.25;4878485;29;20392;-60
2022/09/09 05:14:29;;;;;;;5.72;2.85;;;;;;;7.10;72.81;100050.31;4866667;29;20053;-63
2022/09/09 05:16:56;;;;;;;4.05;2.05;;;;;;;7.07;72.42;100047.28;4845299;29;20068;-63
2022/09/09 05:19:23;;;;;;;2.20;2.00;;;;;;;7.15;72.91;100053.19;4876684;29;20067;-65
2022/09/09 05:21:51;;;;;;;3.42;2.30;;;;;;;7.19;73.21;100064.16;4861471;29;20143;-60
2022/09/09 05:24:22;;;;;;;4.15;2.50;;;;;;;7.18;72.41;100062.53;4861876;29;20069;-65
2022/09/09 05:26:50;;;;;;;3.50;2.53;;;;;;;7.27;72.57;100063.97;4875906;29;20056;-66
2022/09/09 05:29:19;;;;;;;3.05;2.40;;;;;;;7.23;71.94;100058.25;4874942;29;20045;-66
2022/09/09 05:31:46;;;;;;;3.95;2.45;;;;;;;7.32;72.38;100058.88;4859587;29;20426;-68
2022/09/09 05:34:15;;;;;;;6.55;3.25;;;;;;;7.38;71.71;100059.94;4876646;29;20297;-67
2022/09/09 05:36:41;;;;;;;4.00;2.50;;;;;;;7.39;72.17;100065.00;4860701;29;20104;-66
2022/09/09 05:39:07;;;;;;;4.05;2.90;;;;;;;7.52;72.19;100061.56;4875473;29;20045;-67
2022/09/09 05:41:35;;;;;;;3.83;2.88;;;;;;;7.58;71.59;100070.50;4875386;29;20096;-65
2022/09/09 05:44:03;;;;;;;4.57;3.25;;;;;;;7.60;71.42;100063.22;4874800;29;20057;-66
2022/09/09 05:46:33;;;;;;;5.57;3.50;;;;;;;7.64;71.52;100072.34;4875552;29;20049;-66
2022/09/09 05:49:00;;;;;;;4.70;3.38;;;;;;;7.65;71.51;100069.53;4876483;29;20472;-62
2022/09/09 05:51:32;;;;;;;6.18;3.25;;;;;;;7.73;70.10;100060.59;4876002;29;20132;-60
2022/09/09 05:54:02;;;;;;;8.02;3.67;;;;;;;7.77;70.89;100071.56;4861947;29;20125;-59
2022/09/09 05:56:32;;;;;;;5.80;3.60;;;;;;;7.84;70.62;100070.53;4875134;29;20057;-61
2022/09/09 05:58:59;;;;;;;4.53;3.67;;;;;;;7.89;71.12;100076.03;4874607;29;20045;-61
2022/09/09 06:01:29;;;;;;;4.82;3.10;;;;;;;7.95;69.54;100079.69;4860029;29;20464;-60
2022/09/09 06:03:56;;;;;;;3.30;2.83;;;;;;;8.00;70.06;100079.06;4861144;29;20051;-60
2022/09/09 06:06:28;;;;;;;2.35;1.92;;;;;;;7.91;67.29;100075.81;4876233;29;20061;-62
2022/09/09 06:08:58;;;;;;;1.80;1.70;;;;;;;7.93;66.87;100079.06;4890933;29;20099;-62
2022/09/09 06:11:27;;;;;;;2.38;1.80;;;;;;;7.98;67.26;100071.38;4875040;29;20419;-61
2022/09/09 06:13:54;;;;;;;2.70;1.90;;;;;;;7.99;67.02;100086.19;4874324;29;20044;-62
2022/09/09 06:16:26;;;;;;;2.00;1.80;;;;;;;8.08;67.29;100094.72;4859350;29;20056;-61
2022/09/09 06:18:56;;;;;;;2.30;2.05;;;;;;;8.14;67.77;100091.25;4860064;29;20135;-63
2022/09/09 06:21:25;;;;;;;3.05;2.35;;;;;;;8.25;68.19;100093.28;4876110;29;20056;-62
2022/09/09 06:23:52;;;;;;;2.78;1.83;;;;;;;8.30;66.14;100103.25;4876308;29;20128;-60
2022/09/09 06:26:22;;;;;;;4.63;2.03;;;;;;;8.26;67.64;100096.72;4875995;29;20349;-59
2022/09/09 06:28:50;;;;;;;2.55;2.28;;;;;;;8.36;67.19;100103.22;4874820;29;20080;-61
2022/09/09 06:31:21;;;;;;;4.93;2.10;;;;;;;8.45;67.34;100109.16;4875786;29;20049;-60
2022/09/09 06:33:49;;;;;;;2.13;1.70;;;;;;;8.54;65.90;100113.19;4874981;29;20056;-61
2022/09/09 06:36:26;;;;;;;3.03;1.83;;;;;;;8.52;66.75;100109.13;4874785;29;20105;-61
2022/09/09 06:38:53;;;;;;;3.50;1.98;;;;;;;8.57;65.41;100093.47;4874004;29;20053;-62
2022/09/09 06:41:20;;;;;;;2.22;1.67;;;;;;;8.62;65.40;100117.47;4858508;29;20048;-61
2022/09/09 06:43:47;;;;;;;1.67;1.40;;;;;;;8.63;63.38;100119.06;4872944;29;20526;-61
2022/09/09 06:46:21;;;;;;;3.75;1.70;;;;;;;8.71;63.42;100108.28;4875234;29;20056;-62
2022/09/09 06:48:48;;;;;;;3.00;1.88;;;;;;;8.75;63.99;100103.38;4874291;29;20500;-61
2022/09/09 06:51:18;;;;;;;3.30;1.67;;;;;;;8.84;62.19;100123.28;4873701;29;20053;-60
2022/09/09 06:53:46;;;;;;;1.75;1.45;;;;;;;9.12;62.02;100120.34;4874057;29;20053;-61
2022/09/09 06:56:30;;;;;;;1.58;1.42;;;;;;;9.29;61.75;100120.66;4878904;29;20463;-62
2022/09/09 06:58:58;;;;;;;2.08;1.35;;;;;;;9.38;61.29;100121.25;4877864;29;20041;-62
2022/09/09 07:01:30;;;;;;;2.55;1.40;;;;;;;9.66;60.84;100124.34;4863296;29;20052;-62
2022/09/09 07:03:59;;;;;;;3.45;1.50;;;;;;;9.70;61.58;100116.78;4879102;29;20072;-61
2022/09/09 07:06:32;;;;;;;2.03;1.52;;;;;;;9.84;59.51;100128.91;4878815;29;20057;-60
2022/09/09 07:09:01;;;;;;;1.75;1.20;;;;;;;10.06;58.33;100126.72;4877740;29;20053;-62
2022/09/09 07:11:30;;;;;;;1.30;1.20;;;;;;;10.18;58.16;100117.06;4878542;29;20308;-63
2022/09/09 07:13:58;;;;;;;1.75;1.30;;;;;;;10.40;56.96;100125.44;4863656;29;20053;-62
2022/09/09 07:16:24;;;;;;;1.77;1.40;;;;;;;10.54;57.81;100126.13;4876971;29;20127;-61
2022/09/09 07:18:57;;;;;;;1.08;1.05;;;;;;;10.84;56.24;100122.78;4862334;29;20049;-64
2022/09/09 07:21:26;;;;;;;2.70;1.00;;;;;;;10.78;54.79;100127.09;4876430;29;20535;-63
2022/09/09 07:23:52;;;;;;;1.92;1.45;;;;;;;10.62;55.05;100133.81;4861314;29;20092;-61
2022/09/09 07:26:21;;;;;;;2.42;1.17;;;;;;;10.63;55.81;100132.78;4876840;29;20093;-61
2022/09/09 07:28:47;;;;;;;1.75;1.40;;;;;;;10.62;55.75;100136.47;4877003;29;20057;-61
2022/09/09 07:31:16;;;;;;;1.92;1.25;;;;;;;10.79;56.38;100136.69;4861140;29;20049;-61
2022/09/09 07:33:43;;;;;;;1.33;1.20;;;;;;;10.91;55.44;100140.25;4876416;29;20522;-61
2022/09/09 07:36:13;;;;;;;1.67;1.00;;;;;;;11.00;55.15;100138.09;4862368;29;20457;-60
2022/09/09 07:38:45;;;;;;;3.28;1.90;;;;;;;11.09;55.40;100152.69;4876945;29;20104;-61
2022/09/09 07:41:16;;;;;;;1.20;1.10;;;;;;;11.39;53.01;100154.56;4876856;29;20056;-62
2022/09/09 07:43:42;;;;;;;;;;;;;;;11.56;52.70;100163.53;4862547;29;20705;-61
2022/09/09 07:46:09;;;;;;;1.73;1.20;;;;;;;11.36;53.07;100163.78;4879145;29;20019;-63
2022/09/09 07:48:35;;;;;;;7.53;1.30;;;;;;;11.16;53.38;100155.25;4862226;29;20056;-62
2022/09/09 07:51:05;;;;;;;1.33;1.20;;;;;;;11.21;52.97;100160.72;4862186;29;20160;-62
2022/09/09 07:53:31;;;;;;;1.17;1.00;;;;;;;11.29;52.29;100149.78;4861205;29;20104;-63
2022/09/09 07:56:05;;;;;;;1.17;1.02;;;;;;;11.37;52.22;100156.63;4876276;29;20045;-61
2022/09/09 07:58:31;;;;;;;3.20;1.20;;;;;;;11.26;52.48;100163.50;4877305;29;20080;-63
2022/09/09 08:00:57;;;;;;;1.10;0.98;;;;;;;11.12;51.63;100160.22;4876946;29;20165;-63
2022/09/09 08:03:23;;;;;;;2.15;1.05;;;;;;;11.16;52.00;100163.22;4876404;29;20053;-63
2022/09/09 08:05:49;;;;;;;2.83;1.20;;;;;;;11.22;52.30;100162.31;4876615;29;20049;-63
2022/09/09 08:08:16;;;;;;;2.42;1.05;;;;;;;11.34;51.12;100165.84;4877022;29;20461;-63
2022/09/09 08:10:42;;;;;;;1.00;1.00;;;;;;;11.36;52.18;100161.13;4876198;29;20238;-63
2022/09/09 08:13:09;;;;;;;6.07;1.25;;;;;;;11.31;51.32;100154.88;4876335;29;20041;-63
2022/09/09 08:15:35;;;;;;;1.48;0.93;;;;;;;11.21;52.09;100162.56;4876837;29;20511;-62
2022/09/09 08:18:04;;;;;;;2.47;1.30;;;;;;;11.22;51.89;100167.63;4862817;29;20045;-62
2022/09/09 08:20:29;;;;;;;1.17;1.10;;;;;;;11.27;51.41;100172.28;4877820;29;20041;-63
2022/09/09 08:22:56;;;;;;;2.88;1.40;;;;;;;11.25;52.43;100164.53;4877058;29;20037;-62
2022/09/09 08:25:21;;;;;;;1.80;1.08;;;;;;;11.30;52.10;100169.19;4877750;29;20056;-61
2022/09/09 08:27:47;;;;;;;3.42;1.23;;;;;;;11.32;50.45;100175.91;4878086;29;20064;-62
2022/09/09 08:30:13;;;;;;;1.77;1.20;;;;;;;11.35;50.58;100164.00;4876928;29;20037;-63
2022/09/09 08:32:40;;;;;;;1.42;1.10;;;;;;;11.54;50.32;100162.16;4877976;29;20053;-62
2022/09/09 08:35:07;;;;;;;1.48;1.23;;;;;;;11.55;50.01;100175.19;4878063;29;20068;-64
2022/09/09 08:37:33;;;;;;;2.25;1.40;;;;;;;11.32;48.78;100177.72;4861357;29;20049;-62
2022/09/09 08:39:59;;;;;;;1.05;1.02;;;;;;;11.16;49.51;100170.38;4861904;29;20471;-63
2022/09/09 08:42:36;;;;;;;0.98;0.90;;;;;;;11.29;49.80;100176.31;4877754;29;20481;-62
2022/09/09 08:45:22;;;;;;;0.90;0.90;;;;;;;11.55;49.49;100183.16;4877317;29;20148;-62
2022/09/09 08:47:50;;;;;;;1.10;0.95;;;;;;;11.75;48.79;100182.09;4876461;29;20060;-62
2022/09/09 08:50:23;;;;;;;2.80;1.08;;;;;;;11.76;48.86;100181.03;4877210;29;20041;-63
2022/09/09 08:53:08;;;;;;;1.35;0.98;;;;;;;11.70;50.50;100179.28;4876729;29;20131;-65
2022/09/09 08:55:48;;;;;;;2.72;1.33;;;;;;;11.54;49.78;100181.53;4875649;29;20059;-62
2022/09/09 08:58:16;;;;;;;;;;;;;;;11.44;49.62;100193.72;4877181;29;20104;-62
2022/09/09 09:00:59;;;;;;;4.13;1.30;;;;;;;11.51;50.12;100187.28;4875322;29;19939;-61
2022/09/09 09:03:33;;;;;;;1.10;1.00;;;;;;;11.75;49.14;100182.88;4873576;29;20527;-61
2022/09/09 09:06:27;;;;;;;1.02;1.00;;;;;;;11.98;48.90;100174.22;4875980;29;20052;-61
2022/09/09 09:09:18;;;;;;;1.42;0.90;;;;;;;12.07;48.00;100192.50;4874778;29;20392;-62
2022/09/09 09:11:54;;;;;;;2.28;1.00;;;;;;;11.91;47.87;100186.81;4857809;29;20565;-59
2022/09/09 09:14:23;;;;;;;2.15;1.00;;;;;;;11.78;48.64;100193.06;4857510;29;20048;-61
2022/09/09 09:17:15;;;;;;;0.90;0.80;;;;;;;11.85;47.56;100197.47;4873252;29;20270;-62
2022/09/09 09:19:43;;;;;;;1.20;1.10;;;;;;;11.93;47.40;100184.72;4872972;29;20093;-61
2022/09/09 09:22:40;;;;;;;3.42;1.00;;;;;;;11.97;47.23;100183.25;4871950;29;20610;-62
2022/09/09 09:25:20;;;;;;;2.03;1.20;;;;;;;12.16;47.17;100196.44;4873391;29;20056;-61
2022/09/09 09:28:21;;;;;;;2.20;1.33;;;;;;;12.33;46.36;100186.78;4872210;29;20053;-62
2022/09/09 09:31:01;;;;;;;3.92;1.42;;;;;;;12.12;47.30;100187.28;4858079;29;20060;-62
2022/09/09 09:33:52;;;;;;;1.33;1.20;;;;;;;11.96;47.12;100200.19;4857323;29;20064;-62
2022/09/09 09:36:44;;;;;;;1.50;1.35;;;;;;;11.87;48.13;100198.91;4873820;29;20048;-62
2022/09/09 09:39:36;;;;;;;1.13;1.10;;;;;;;11.95;48.02;100189.81;4872631;29;20498;-61
2022/09/09 09:42:13;;;;;;;2.17;1.10;;;;;;;12.14;46.92;100198.50;4871483;29;20049;-62
2022/09/09 09:44:41;;;;;;;1.30;1.20;;;;;;;12.15;46.57;100186.88;4856792;29;20270;-63
2022/09/09 09:47:21;;;;;;;1.33;1.20;;;;;;;12.36;47.18;100186.31;4872566;29;20045;-61
2022/09/09 09:50:02;;;;;;;2.33;1.50;;;;;;;12.30;47.71;100189.91;4872107;29;20048;-62
2022/09/09 09:52:34;;;;;;;1.67;1.30;;;;;;;12.39;47.44;100188.50;4873142;29;20080;-61
2022/09/09 09:55:04;;;;;;;2.15;1.27;;;;;;;12.46;47.71;100201.69;4872597;29;20096;-62
2022/09/09 09:57:31;;;;;;;1.38;1.10;;;;;;;12.54;47.05;100198.69;4871548;29;20060;-61
2022/09/09 10:00:15;;;;;;;1.48;1.38;;;;;;;12.56;46.85;100193.97;4872912;29;20055;-63
2022/09/09 10:02:44;;;;;;;2.05;1.00;;;;;;;12.67;46.13;100187.00;4871301;29;20396;-62
2022/09/09 10:05:22;;;;;;;1.38;1.15;;;;;;;12.63;46.46;100189.34;4871353;29;20283;-62
2022/09/09 10:08:10;;;;;;;1.10;1.00;;;;;;;12.65;44.78;100181.94;4855938;29;20067;-62
2022/09/09 10:11:04;;;;;;;1.38;1.27;;;;;;;12.68;46.11;100188.66;4872211;29;20786;-64
2022/09/09 10:13:58;;;;;;;2.25;1.00;;;;;;;12.85;45.29;100188.75;4872325;29;20080;-63
2022/09/09 10:16:55;;;;;;;1.10;1.00;;;;;;;12.82;44.27;100192.69;4872475;29;20048;-61
2022/09/09 10:19:35;;;;;;;1.05;1.00;;;;;;;12.79;44.37;100190.47;4871943;29;20049;-60
2022/09/09 10:22:06;;;;;;;1.15;1.10;;;;;;;12.78;43.87;100185.41;4875335;29;20575;-61
2022/09/09 10:24:44;;;;;;;1.98;1.50;;;;;;;12.69;44.50;100182.28;4888812;29;20067;-62
2022/09/09 10:27:20;;;;;;;2.15;1.30;;;;;;;12.79;44.27;100184.34;4875993;29;20060;-60
2022/09/09 10:30:08;;;;;;;3.75;1.40;;;;;;;12.78;44.75;100188.06;4872765;29;20041;-61
2022/09/09 10:32:51;;;;;;;2.75;1.65;;;;;;;12.90;44.53;100188.88;4876450;29;20055;-60
2022/09/09 10:35:36;;;;;;;1.65;1.10;;;;;;;12.97;45.42;100194.88;4876749;29;20071;-61
2022/09/09 10:38:30;;;;;;;1.48;1.20;;;;;;;12.88;46.10;100199.75;4858592;29;20476;-61
2022/09/09 10:40:56;;;;;;;3.72;1.15;;;;;;;12.90;45.80;100205.63;4858031;29;20087;-61
2022/09/09 10:43:53;;;;;;;2.58;1.30;;;;;;;12.91;46.18;100199.28;4874881;29;20121;-61
2022/09/09 10:47:00;;;;;;;5.43;5.03;;;;;;;12.81;46.05;100201.72;4876243;29;20460;-61
2022/09/09 10:49:52;;;;;;;4.18;3.28;;;;;;;12.68;46.53;100212.59;4875582;29;20561;-61
2022/09/09 10:52:26;;;;;;;2.63;1.70;;;;;;;12.58;47.62;100207.03;4876200;29;20462;-61
2022/09/09 10:55:10;;;;;;;1.20;1.10;;;;;;;12.38;47.37;100215.31;4873404;29;20075;-60
2022/09/09 10:57:51;;;;;;;1.38;1.20;;;;;;;12.12;48.53;100197.91;4873814;29;20077;-62
2022/09/09 11:00:23;;;;;;;2.78;1.58;;;;;;;11.95;49.16;100205.75;4858444;29;20048;-61
2022/09/09 11:03:01;;;;;;;1.50;1.10;;;;;;;11.99;48.52;100199.75;4888398;29;20076;-62
2022/09/09 11:05:42;;;;;;;1.15;1.00;;;;;;;12.08;47.01;100194.91;4873399;29;20515;-61
2022/09/09 11:08:24;;;;;;;1.15;1.08;;;;;;;12.25;46.16;100198.53;4872427;29;20053;-62
2022/09/09 11:10:52;;;;;;;1.52;1.42;;;;;;;12.39;45.44;100190.38;4873097;29;20514;-62
2022/09/09 11:13:39;;;;;;;1.90;1.10;;;;;;;12.66;44.37;100188.06;4857552;29;20045;-62
2022/09/09 11:16:13;;;;;;;0.90;0.90;;;;;;;12.90;44.47;100178.22;4874292;29;20056;-63
2022/09/09 11:18:40;;;;;;;4.18;1.20;;;;;;;13.09;43.11;100178.91;4872684;29;20049;-61
2022/09/09 11:21:14;;;;;;;1.02;1.00;;;;;;;13.33;42.43;100185.00;4874542;29;20085;-62
2022/09/09 11:23:43;;;;;;;1.60;1.00;;;;;;;13.25;42.67;100186.19;4857843;29;20049;-61
2022/09/09 11:26:16;;;;;;;0.93;0.90;;;;;;;13.18;43.96;100193.47;4874403;29;20071;-61
2022/09/09 11:29:23;;;;;;;4.95;4.35;;;;;;;13.15;44.04;100185.94;4873503;29;20049;-63
2022/09/09 11:32:16;;;;;;;2.08;1.92;;;;;;;13.14;44.62;100189.63;4880189;29;20053;-62
2022/09/09 11:34:53;;;;;;;6.43;4.20;;;;;;;12.83;44.61;100196.16;4874288;29;20057;-62
2022/09/09 11:37:52;;;;;;;1.88;1.60;;;;;;;12.61;45.17;100194.06;4872891;29;20067;-62
2022/09/09 11:40:25;;;;;;;1.35;1.10;;;;;;;12.52;44.90;100189.31;4841655;29;20117;-64
2022/09/09 11:43:14;;;;;;;2.45;0.98;;;;;;;12.38;44.98;100194.03;4878599;29;20071;-62
2022/09/09 11:45:41;;;;;;;0.93;0.93;;;;;;;12.30;45.34;100187.22;4877976;29;20041;-63
2022/09/09 11:48:31;;;;;;;1.20;0.90;;;;;;;12.14;45.81;100188.69;4877602;29;20102;-65
2022/09/09 11:51:00;;;;;;;0.75;0.75;;;;;;;12.11;45.45;100185.69;4891738;29;20055;-62
2022/09/09 11:53:26;;;;;;;2.67;1.00;;;;;;;12.11;45.46;100180.38;4876163;29;20057;-61
2022/09/09 11:56:07;;;;;;;0.90;0.90;;;;;;;12.16;45.05;100183.16;4876405;29;20052;-63
2022/09/09 11:58:41;;;;;;;3.75;1.70;;;;;;;12.32;45.04;100179.00;4875236;29;20161;-63
2022/09/09 12:01:15;;;;;;;3.67;2.60;;;;;;;12.48;44.08;100184.47;4877745;29;20398;-63
2022/09/09 12:03:47;;;;;;;1.60;1.50;;;;;;;12.58;43.24;100183.09;4878265;29;20052;-62